sensor_id;sensor_type;location;lat;lon;timestamp;P1;durP1;ratioP1;P2;durP2;ratioP2
16922;SDS011;8578;50.938;13.556;2023-05-28T00:02:12;5.63;;;3.50;;
16922;SDS011;8578;50.938;13.556;2023-05-28T00:04:40;9.17;;;3.93;;
16922;SDS011;8578;50.938;13.556;2023-05-28T00:07:07;8.03;;;3.80;;
16922;SDS011;8578;50.938;13.556;2023-05-28T00:09:38;6.87;;;4.20;;
16922;SDS011;8578;50.938;13.556;2023-05-28T00:12:07;6.13;;;3.50;;
16922;SDS011;8578;50.938;13.556;2023-05-28T00:14:35;7.63;;;3.90;;
16922;SDS011;8578;50.938;13.556;2023-05-28T00:17:02;7.23;;;3.60;;
16922;SDS011;8578;50.938;13.556;2023-05-28T00:19:30;6.63;;;3.43;;
16922;SDS011;8578;50.938;13.556;2023-05-28T00:21:57;8.47;;;3.80;;
16922;SDS011;8578;50.938;13.556;2023-05-28T00:24:25;8.63;;;3.47;;
16922;SDS011;8578;50.938;13.556;2023-05-28T00:26:55;7.07;;;3.10;;
16922;SDS011;8578;50.938;13.556;2023-05-28T00:29:23;5.67;;;3.17;;
16922;SDS011;8578;50.938;13.556;2023-05-28T00:31:53;6.20;;;2.73;;
16922;SDS011;8578;50.938;13.556;2023-05-28T00:34:21;5.53;;;2.77;;
16922;SDS011;8578;50.938;13.556;2023-05-28T00:36:49;6.57;;;3.20;;
16922;SDS011;8578;50.938;13.556;2023-05-28T00:39:17;5.17;;;3.07;;
16922;SDS011;8578;50.938;13.556;2023-05-28T00:41:45;6.40;;;3.20;;
16922;SDS011;8578;50.938;13.556;2023-05-28T00:44:14;7.77;;;3.73;;
16922;SDS011;8578;50.938;13.556;2023-05-28T00:46:43;7.03;;;3.27;;
16922;SDS011;8578;50.938;13.556;2023-05-28T00:49:10;6.43;;;3.30;;
16922;SDS011;8578;50.938;13.556;2023-05-28T00:51:39;6.07;;;3.47;;
16922;SDS011;8578;50.938;13.556;2023-05-28T00:54:07;4.40;;;2.90;;
16922;SDS011;8578;50.938;13.556;2023-05-28T00:56:34;7.17;;;3.13;;
16922;SDS011;8578;50.938;13.556;2023-05-28T00:59:03;6.30;;;3.30;;
16922;SDS011;8578;50.938;13.556;2023-05-28T01:01:32;5.00;;;3.27;;
16922;SDS011;8578;50.938;13.556;2023-05-28T01:04:01;7.30;;;3.33;;
16922;SDS011;8578;50.938;13.556;2023-05-28T01:06:30;8.77;;;3.53;;
16922;SDS011;8578;50.938;13.556;2023-05-28T01:08:58;4.77;;;3.17;;
16922;SDS011;8578;50.938;13.556;2023-05-28T01:11:26;5.87;;;3.33;;
16922;SDS011;8578;50.938;13.556;2023-05-28T01:13:54;5.10;;;3.37;;
16922;SDS011;8578;50.938;13.556;2023-05-28T01:16:22;6.53;;;3.03;;
16922;SDS011;8578;50.938;13.556;2023-05-28T01:18:51;6.13;;;3.30;;
16922;SDS011;8578;50.938;13.556;2023-05-28T01:21:22;5.57;;;3.30;;
16922;SDS011;8578;50.938;13.556;2023-05-28T01:23:52;5.83;;;2.93;;
16922;SDS011;8578;50.938;13.556;2023-05-28T01:26:20;6.37;;;3.30;;
16922;SDS011;8578;50.938;13.556;2023-05-28T01:28:49;6.70;;;3.20;;
16922;SDS011;8578;50.938;13.556;2023-05-28T01:31:16;4.97;;;2.87;;
16922;SDS011;8578;50.938;13.556;2023-05-28T01:33:44;6.70;;;2.63;;
16922;SDS011;8578;50.938;13.556;2023-05-28T01:36:13;4.97;;;2.80;;
16922;SDS011;8578;50.938;13.556;2023-05-28T01:38:41;5.07;;;2.67;;
16922;SDS011;8578;50.938;13.556;2023-05-28T01:41:12;6.20;;;2.70;;
16922;SDS011;8578;50.938;13.556;2023-05-28T01:43:41;6.03;;;2.73;;
16922;SDS011;8578;50.938;13.556;2023-05-28T01:46:09;3.70;;;2.60;;
16922;SDS011;8578;50.938;13.556;2023-05-28T01:48:36;7.53;;;2.57;;
16922;SDS011;8578;50.938;13.556;2023-05-28T01:51:04;6.10;;;2.60;;
16922;SDS011;8578;50.938;13.556;2023-05-28T01:53:32;8.43;;;3.30;;
16922;SDS011;8578;50.938;13.556;2023-05-28T01:56:00;6.80;;;2.73;;
16922;SDS011;8578;50.938;13.556;2023-05-28T01:58:31;6.10;;;2.80;;
16922;SDS011;8578;50.938;13.556;2023-05-28T02:01:01;6.97;;;2.60;;
16922;SDS011;8578;50.938;13.556;2023-05-28T02:03:30;4.37;;;2.50;;
16922;SDS011;8578;50.938;13.556;2023-05-28T02:05:57;3.80;;;2.40;;
16922;SDS011;8578;50.938;13.556;2023-05-28T02:08:25;4.93;;;2.50;;
16922;SDS011;8578;50.938;13.556;2023-05-28T02:10:52;6.00;;;2.80;;
16922;SDS011;8578;50.938;13.556;2023-05-28T02:13:20;7.80;;;3.23;;
16922;SDS011;8578;50.938;13.556;2023-05-28T02:15:50;5.10;;;2.80;;
16922;SDS011;8578;50.938;13.556;2023-05-28T02:18:19;4.60;;;2.60;;
16922;SDS011;8578;50.938;13.556;2023-05-28T02:20:47;5.47;;;2.63;;
16922;SDS011;8578;50.938;13.556;2023-05-28T02:23:15;5.10;;;2.67;;
16922;SDS011;8578;50.938;13.556;2023-05-28T02:25:46;4.03;;;2.50;;
16922;SDS011;8578;50.938;13.556;2023-05-28T02:28:14;4.43;;;2.70;;
16922;SDS011;8578;50.938;13.556;2023-05-28T02:30:41;4.87;;;2.70;;
16922;SDS011;8578;50.938;13.556;2023-05-28T02:33:10;4.77;;;2.80;;
16922;SDS011;8578;50.938;13.556;2023-05-28T02:35:37;5.90;;;2.77;;
16922;SDS011;8578;50.938;13.556;2023-05-28T02:38:06;3.77;;;2.50;;
16922;SDS011;8578;50.938;13.556;2023-05-28T02:40:34;4.93;;;2.67;;
16922;SDS011;8578;50.938;13.556;2023-05-28T02:43:02;6.50;;;2.70;;
16922;SDS011;8578;50.938;13.556;2023-05-28T02:45:29;4.27;;;2.60;;
16922;SDS011;8578;50.938;13.556;2023-05-28T02:47:57;4.80;;;2.70;;
16922;SDS011;8578;50.938;13.556;2023-05-28T02:50:26;5.63;;;2.53;;
16922;SDS011;8578;50.938;13.556;2023-05-28T02:53:19;3.97;;;2.70;;
16922;SDS011;8578;50.938;13.556;2023-05-28T02:55:48;5.63;;;2.83;;
16922;SDS011;8578;50.938;13.556;2023-05-28T02:58:15;6.00;;;3.00;;
16922;SDS011;8578;50.938;13.556;2023-05-28T03:00:45;7.20;;;2.83;;
16922;SDS011;8578;50.938;13.556;2023-05-28T03:03:13;5.47;;;2.30;;
16922;SDS011;8578;50.938;13.556;2023-05-28T03:05:43;4.73;;;2.80;;
16922;SDS011;8578;50.938;13.556;2023-05-28T03:08:10;6.13;;;2.80;;
16922;SDS011;8578;50.938;13.556;2023-05-28T03:10:38;7.73;;;2.97;;
16922;SDS011;8578;50.938;13.556;2023-05-28T03:13:05;7.20;;;3.23;;
16922;SDS011;8578;50.938;13.556;2023-05-28T03:15:33;4.80;;;2.60;;
16922;SDS011;8578;50.938;13.556;2023-05-28T03:18:01;4.90;;;2.60;;
16922;SDS011;8578;50.938;13.556;2023-05-28T03:20:34;4.70;;;2.43;;
16922;SDS011;8578;50.938;13.556;2023-05-28T03:23:03;5.23;;;2.77;;
16922;SDS011;8578;50.938;13.556;2023-05-28T03:25:41;7.77;;;2.87;;
16922;SDS011;8578;50.938;13.556;2023-05-28T03:28:08;5.03;;;1.93;;
16922;SDS011;8578;50.938;13.556;2023-05-28T03:30:54;5.27;;;2.70;;
16922;SDS011;8578;50.938;13.556;2023-05-28T03:33:23;6.13;;;2.60;;
16922;SDS011;8578;50.938;13.556;2023-05-28T03:35:51;5.20;;;2.40;;
16922;SDS011;8578;50.938;13.556;2023-05-28T03:38:20;4.63;;;2.43;;
16922;SDS011;8578;50.938;13.556;2023-05-28T03:40:48;4.63;;;2.70;;
16922;SDS011;8578;50.938;13.556;2023-05-28T03:43:15;4.13;;;2.57;;
16922;SDS011;8578;50.938;13.556;2023-05-28T03:45:43;7.43;;;2.63;;
16922;SDS011;8578;50.938;13.556;2023-05-28T03:48:12;5.70;;;3.03;;
16922;SDS011;8578;50.938;13.556;2023-05-28T03:50:40;4.60;;;2.70;;
16922;SDS011;8578;50.938;13.556;2023-05-28T03:53:08;6.13;;;3.13;;
16922;SDS011;8578;50.938;13.556;2023-05-28T03:55:36;6.07;;;2.63;;
16922;SDS011;8578;50.938;13.556;2023-05-28T03:58:05;4.50;;;2.60;;
16922;SDS011;8578;50.938;13.556;2023-05-28T04:00:33;5.63;;;2.90;;
16922;SDS011;8578;50.938;13.556;2023-05-28T04:03:01;7.60;;;3.13;;
16922;SDS011;8578;50.938;13.556;2023-05-28T04:05:29;5.87;;;3.10;;
16922;SDS011;8578;50.938;13.556;2023-05-28T04:07:59;6.13;;;3.00;;
16922;SDS011;8578;50.938;13.556;2023-05-28T04:10:27;7.93;;;4.50;;
16922;SDS011;8578;50.938;13.556;2023-05-28T04:12:56;9.17;;;3.97;;
16922;SDS011;8578;50.938;13.556;2023-05-28T04:15:24;8.77;;;3.07;;
16922;SDS011;8578;50.938;13.556;2023-05-28T04:17:52;5.47;;;2.70;;
16922;SDS011;8578;50.938;13.556;2023-05-28T04:20:19;4.07;;;2.67;;
16922;SDS011;8578;50.938;13.556;2023-05-28T04:22:48;6.13;;;2.40;;
16922;SDS011;8578;50.938;13.556;2023-05-28T04:25:16;6.27;;;3.07;;
16922;SDS011;8578;50.938;13.556;2023-05-28T04:27:45;5.77;;;3.30;;
16922;SDS011;8578;50.938;13.556;2023-05-28T04:30:14;7.33;;;3.40;;
16922;SDS011;8578;50.938;13.556;2023-05-28T04:32:43;5.23;;;2.90;;
16922;SDS011;8578;50.938;13.556;2023-05-28T04:35:10;6.37;;;2.90;;
16922;SDS011;8578;50.938;13.556;2023-05-28T04:37:39;7.40;;;2.90;;
16922;SDS011;8578;50.938;13.556;2023-05-28T04:40:06;7.70;;;2.80;;
16922;SDS011;8578;50.938;13.556;2023-05-28T04:42:38;4.97;;;2.73;;
16922;SDS011;8578;50.938;13.556;2023-05-28T04:45:06;7.83;;;2.40;;
16922;SDS011;8578;50.938;13.556;2023-05-28T04:47:37;4.90;;;2.80;;
16922;SDS011;8578;50.938;13.556;2023-05-28T04:50:05;7.07;;;3.27;;
16922;SDS011;8578;50.938;13.556;2023-05-28T04:52:33;5.50;;;2.70;;
16922;SDS011;8578;50.938;13.556;2023-05-28T04:55:01;6.30;;;3.27;;
16922;SDS011;8578;50.938;13.556;2023-05-28T04:57:32;6.23;;;2.50;;
16922;SDS011;8578;50.938;13.556;2023-05-28T05:00:00;6.77;;;3.10;;
16922;SDS011;8578;50.938;13.556;2023-05-28T05:02:29;8.60;;;2.83;;
16922;SDS011;8578;50.938;13.556;2023-05-28T05:04:58;7.83;;;2.87;;
16922;SDS011;8578;50.938;13.556;2023-05-28T05:07:27;7.63;;;3.10;;
16922;SDS011;8578;50.938;13.556;2023-05-28T05:09:55;6.57;;;2.87;;
16922;SDS011;8578;50.938;13.556;2023-05-28T05:12:22;8.23;;;2.90;;
16922;SDS011;8578;50.938;13.556;2023-05-28T05:14:50;7.37;;;2.80;;
16922;SDS011;8578;50.938;13.556;2023-05-28T05:17:19;6.20;;;2.87;;
16922;SDS011;8578;50.938;13.556;2023-05-28T05:19:46;7.27;;;2.93;;
16922;SDS011;8578;50.938;13.556;2023-05-28T05:22:15;10.33;;;2.97;;
16922;SDS011;8578;50.938;13.556;2023-05-28T05:24:45;6.23;;;2.83;;
16922;SDS011;8578;50.938;13.556;2023-05-28T05:27:14;7.60;;;2.77;;
16922;SDS011;8578;50.938;13.556;2023-05-28T05:29:42;8.03;;;3.00;;
16922;SDS011;8578;50.938;13.556;2023-05-28T05:32:09;8.70;;;3.30;;
16922;SDS011;8578;50.938;13.556;2023-05-28T05:34:37;6.63;;;3.03;;
16922;SDS011;8578;50.938;13.556;2023-05-28T05:37:25;5.20;;;2.90;;
16922;SDS011;8578;50.938;13.556;2023-05-28T05:40:10;6.93;;;2.80;;
16922;SDS011;8578;50.938;13.556;2023-05-28T05:42:55;8.37;;;3.43;;
16922;SDS011;8578;50.938;13.556;2023-05-28T05:45:23;7.53;;;3.47;;
16922;SDS011;8578;50.938;13.556;2023-05-28T05:47:52;6.00;;;3.13;;
16922;SDS011;8578;50.938;13.556;2023-05-28T05:50:19;7.30;;;3.67;;
16922;SDS011;8578;50.938;13.556;2023-05-28T05:52:49;7.27;;;3.43;;
16922;SDS011;8578;50.938;13.556;2023-05-28T05:55:16;5.70;;;3.20;;
16922;SDS011;8578;50.938;13.556;2023-05-28T05:57:44;6.13;;;3.50;;
16922;SDS011;8578;50.938;13.556;2023-05-28T06:00:12;4.53;;;2.80;;
16922;SDS011;8578;50.938;13.556;2023-05-28T06:02:40;8.60;;;3.23;;
16922;SDS011;8578;50.938;13.556;2023-05-28T06:05:33;7.13;;;2.67;;
16922;SDS011;8578;50.938;13.556;2023-05-28T06:08:12;5.40;;;2.57;;
16922;SDS011;8578;50.938;13.556;2023-05-28T06:10:53;6.63;;;2.60;;
16922;SDS011;8578;50.938;13.556;2023-05-28T06:13:21;4.70;;;2.23;;
16922;SDS011;8578;50.938;13.556;2023-05-28T06:15:49;5.50;;;2.33;;
16922;SDS011;8578;50.938;13.556;2023-05-28T06:18:18;5.70;;;2.43;;
16922;SDS011;8578;50.938;13.556;2023-05-28T06:20:45;4.10;;;2.47;;
16922;SDS011;8578;50.938;13.556;2023-05-28T06:23:15;4.27;;;2.50;;
16922;SDS011;8578;50.938;13.556;2023-05-28T06:25:42;7.77;;;2.20;;
16922;SDS011;8578;50.938;13.556;2023-05-28T06:28:10;4.53;;;2.00;;
16922;SDS011;8578;50.938;13.556;2023-05-28T06:30:38;4.17;;;1.97;;
16922;SDS011;8578;50.938;13.556;2023-05-28T06:33:06;5.77;;;1.93;;
16922;SDS011;8578;50.938;13.556;2023-05-28T06:35:35;3.70;;;1.73;;
16922;SDS011;8578;50.938;13.556;2023-05-28T06:38:03;8.80;;;2.07;;
16922;SDS011;8578;50.938;13.556;2023-05-28T06:40:32;6.00;;;2.50;;
16922;SDS011;8578;50.938;13.556;2023-05-28T06:43:00;4.03;;;2.03;;
16922;SDS011;8578;50.938;13.556;2023-05-28T06:45:51;5.33;;;2.20;;
16922;SDS011;8578;50.938;13.556;2023-05-28T06:48:19;5.83;;;2.47;;
16922;SDS011;8578;50.938;13.556;2023-05-28T06:50:47;6.13;;;1.97;;
16922;SDS011;8578;50.938;13.556;2023-05-28T06:53:15;5.57;;;1.73;;
16922;SDS011;8578;50.938;13.556;2023-05-28T06:55:45;4.37;;;1.73;;
16922;SDS011;8578;50.938;13.556;2023-05-28T06:58:44;5.10;;;2.10;;
16922;SDS011;8578;50.938;13.556;2023-05-28T07:01:32;5.43;;;2.00;;
16922;SDS011;8578;50.938;13.556;2023-05-28T07:04:07;6.97;;;2.33;;
16922;SDS011;8578;50.938;13.556;2023-05-28T07:06:37;5.20;;;1.90;;
16922;SDS011;8578;50.938;13.556;2023-05-28T07:09:09;5.13;;;2.23;;
16922;SDS011;8578;50.938;13.556;2023-05-28T07:11:38;6.77;;;2.00;;
16922;SDS011;8578;50.938;13.556;2023-05-28T07:14:06;8.03;;;2.00;;
16922;SDS011;8578;50.938;13.556;2023-05-28T07:16:35;4.87;;;1.97;;
16922;SDS011;8578;50.938;13.556;2023-05-28T07:19:03;6.60;;;2.10;;
16922;SDS011;8578;50.938;13.556;2023-05-28T07:21:31;3.80;;;1.73;;
16922;SDS011;8578;50.938;13.556;2023-05-28T07:23:59;8.23;;;1.90;;
16922;SDS011;8578;50.938;13.556;2023-05-28T07:26:29;4.60;;;1.90;;
16922;SDS011;8578;50.938;13.556;2023-05-28T07:28:58;6.63;;;1.97;;
16922;SDS011;8578;50.938;13.556;2023-05-28T07:31:27;5.57;;;2.17;;
16922;SDS011;8578;50.938;13.556;2023-05-28T07:33:58;3.47;;;2.03;;
16922;SDS011;8578;50.938;13.556;2023-05-28T07:36:31;3.30;;;1.83;;
16922;SDS011;8578;50.938;13.556;2023-05-28T07:38:59;5.53;;;2.10;;
16922;SDS011;8578;50.938;13.556;2023-05-28T07:41:28;5.20;;;2.13;;
16922;SDS011;8578;50.938;13.556;2023-05-28T07:44:04;5.40;;;2.20;;
16922;SDS011;8578;50.938;13.556;2023-05-28T07:46:32;5.50;;;2.20;;
16922;SDS011;8578;50.938;13.556;2023-05-28T07:49:07;5.57;;;2.00;;
16922;SDS011;8578;50.938;13.556;2023-05-28T07:51:42;5.80;;;2.40;;
16922;SDS011;8578;50.938;13.556;2023-05-28T07:54:15;6.90;;;2.47;;
16922;SDS011;8578;50.938;13.556;2023-05-28T07:56:45;5.80;;;2.10;;
16922;SDS011;8578;50.938;13.556;2023-05-28T07:59:21;3.37;;;1.90;;
16922;SDS011;8578;50.938;13.556;2023-05-28T08:01:50;5.27;;;2.27;;
16922;SDS011;8578;50.938;13.556;2023-05-28T08:04:18;6.67;;;2.20;;
16922;SDS011;8578;50.938;13.556;2023-05-28T08:06:46;5.97;;;2.00;;
16922;SDS011;8578;50.938;13.556;2023-05-28T08:09:15;5.30;;;3.03;;
16922;SDS011;8578;50.938;13.556;2023-05-28T08:11:47;7.37;;;2.60;;
16922;SDS011;8578;50.938;13.556;2023-05-28T08:14:16;5.60;;;2.33;;
16922;SDS011;8578;50.938;13.556;2023-05-28T08:16:47;4.93;;;2.13;;
16922;SDS011;8578;50.938;13.556;2023-05-28T08:19:25;4.33;;;2.13;;
16922;SDS011;8578;50.938;13.556;2023-05-28T08:21:57;5.73;;;2.03;;
16922;SDS011;8578;50.938;13.556;2023-05-28T08:24:26;4.93;;;2.10;;
16922;SDS011;8578;50.938;13.556;2023-05-28T08:26:55;4.10;;;2.23;;
16922;SDS011;8578;50.938;13.556;2023-05-28T08:29:24;4.50;;;2.03;;
16922;SDS011;8578;50.938;13.556;2023-05-28T08:32:00;4.93;;;2.17;;
16922;SDS011;8578;50.938;13.556;2023-05-28T08:34:31;4.63;;;2.03;;
16922;SDS011;8578;50.938;13.556;2023-05-28T08:37:00;6.67;;;1.70;;
16922;SDS011;8578;50.938;13.556;2023-05-28T08:39:33;5.23;;;2.00;;
16922;SDS011;8578;50.938;13.556;2023-05-28T08:42:01;5.07;;;2.10;;
16922;SDS011;8578;50.938;13.556;2023-05-28T08:44:30;3.60;;;1.67;;
16922;SDS011;8578;50.938;13.556;2023-05-28T08:46:57;5.80;;;1.83;;
16922;SDS011;8578;50.938;13.556;2023-05-28T08:49:47;2.80;;;1.93;;
16922;SDS011;8578;50.938;13.556;2023-05-28T08:52:20;5.90;;;1.93;;
16922;SDS011;8578;50.938;13.556;2023-05-28T08:54:47;2.77;;;1.87;;
16922;SDS011;8578;50.938;13.556;2023-05-28T08:57:16;4.27;;;1.87;;
16922;SDS011;8578;50.938;13.556;2023-05-28T08:59:50;5.57;;;2.07;;
16922;SDS011;8578;50.938;13.556;2023-05-28T09:02:20;7.43;;;2.00;;
16922;SDS011;8578;50.938;13.556;2023-05-28T09:04:48;4.70;;;1.73;;
16922;SDS011;8578;50.938;13.556;2023-05-28T09:07:16;5.70;;;2.20;;
16922;SDS011;8578;50.938;13.556;2023-05-28T09:09:51;6.23;;;1.87;;
16922;SDS011;8578;50.938;13.556;2023-05-28T09:12:20;3.60;;;2.00;;
16922;SDS011;8578;50.938;13.556;2023-05-28T09:14:52;5.93;;;2.20;;
16922;SDS011;8578;50.938;13.556;2023-05-28T09:17:31;7.87;;;2.20;;
16922;SDS011;8578;50.938;13.556;2023-05-28T09:20:06;4.63;;;1.80;;
16922;SDS011;8578;50.938;13.556;2023-05-28T09:22:38;4.83;;;2.10;;
16922;SDS011;8578;50.938;13.556;2023-05-28T09:25:18;5.30;;;1.73;;
16922;SDS011;8578;50.938;13.556;2023-05-28T09:27:53;8.03;;;2.10;;
16922;SDS011;8578;50.938;13.556;2023-05-28T09:30:21;5.73;;;2.37;;
16922;SDS011;8578;50.938;13.556;2023-05-28T09:33:00;4.43;;;2.10;;
16922;SDS011;8578;50.938;13.556;2023-05-28T09:35:29;3.77;;;2.07;;
16922;SDS011;8578;50.938;13.556;2023-05-28T09:38:01;2.90;;;1.87;;
16922;SDS011;8578;50.938;13.556;2023-05-28T09:40:29;6.13;;;2.50;;
16922;SDS011;8578;50.938;13.556;2023-05-28T09:42:56;6.40;;;2.37;;
16922;SDS011;8578;50.938;13.556;2023-05-28T09:45:25;4.20;;;2.13;;
16922;SDS011;8578;50.938;13.556;2023-05-28T09:47:53;5.07;;;2.13;;
16922;SDS011;8578;50.938;13.556;2023-05-28T09:50:21;7.00;;;2.30;;
16922;SDS011;8578;50.938;13.556;2023-05-28T09:52:49;9.33;;;2.33;;
16922;SDS011;8578;50.938;13.556;2023-05-28T09:55:22;5.30;;;2.10;;
16922;SDS011;8578;50.938;13.556;2023-05-28T09:57:52;6.23;;;2.40;;
16922;SDS011;8578;50.938;13.556;2023-05-28T10:00:22;4.93;;;2.27;;
16922;SDS011;8578;50.938;13.556;2023-05-28T10:02:57;3.70;;;1.97;;
16922;SDS011;8578;50.938;13.556;2023-05-28T10:05:26;5.23;;;2.10;;
16922;SDS011;8578;50.938;13.556;2023-05-28T10:07:56;4.20;;;2.10;;
16922;SDS011;8578;50.938;13.556;2023-05-28T10:10:25;5.27;;;2.17;;
16922;SDS011;8578;50.938;13.556;2023-05-28T10:12:53;6.40;;;2.40;;
16922;SDS011;8578;50.938;13.556;2023-05-28T10:15:22;5.60;;;2.37;;
16922;SDS011;8578;50.938;13.556;2023-05-28T10:17:51;5.70;;;2.27;;
16922;SDS011;8578;50.938;13.556;2023-05-28T10:20:18;4.90;;;2.00;;
16922;SDS011;8578;50.938;13.556;2023-05-28T10:22:46;6.37;;;2.17;;
16922;SDS011;8578;50.938;13.556;2023-05-28T10:25:16;3.10;;;1.97;;
16922;SDS011;8578;50.938;13.556;2023-05-28T10:27:44;6.47;;;2.20;;
16922;SDS011;8578;50.938;13.556;2023-05-28T10:30:29;5.03;;;1.90;;
16922;SDS011;8578;50.938;13.556;2023-05-28T10:32:57;5.23;;;2.10;;
16922;SDS011;8578;50.938;13.556;2023-05-28T10:35:25;3.80;;;1.80;;
16922;SDS011;8578;50.938;13.556;2023-05-28T10:38:01;6.63;;;2.57;;
16922;SDS011;8578;50.938;13.556;2023-05-28T10:40:30;4.63;;;2.00;;
16922;SDS011;8578;50.938;13.556;2023-05-28T10:43:00;5.43;;;2.23;;
16922;SDS011;8578;50.938;13.556;2023-05-28T10:45:34;4.23;;;2.10;;
16922;SDS011;8578;50.938;13.556;2023-05-28T10:48:03;3.63;;;2.03;;
16922;SDS011;8578;50.938;13.556;2023-05-28T10:50:33;7.33;;;3.57;;
16922;SDS011;8578;50.938;13.556;2023-05-28T10:53:23;6.50;;;2.57;;
16922;SDS011;8578;50.938;13.556;2023-05-28T10:55:53;6.30;;;2.13;;
16922;SDS011;8578;50.938;13.556;2023-05-28T10:58:25;6.93;;;2.23;;
16922;SDS011;8578;50.938;13.556;2023-05-28T11:00:57;4.20;;;1.90;;
16922;SDS011;8578;50.938;13.556;2023-05-28T11:03:41;4.37;;;1.90;;
16922;SDS011;8578;50.938;13.556;2023-05-28T11:06:09;3.13;;;1.80;;
16922;SDS011;8578;50.938;13.556;2023-05-28T11:08:38;4.37;;;2.30;;
16922;SDS011;8578;50.938;13.556;2023-05-28T11:11:07;3.77;;;1.90;;
16922;SDS011;8578;50.938;13.556;2023-05-28T11:13:35;3.70;;;1.87;;
16922;SDS011;8578;50.938;13.556;2023-05-28T11:16:06;4.33;;;2.10;;
16922;SDS011;8578;50.938;13.556;2023-05-28T11:18:34;5.30;;;1.87;;
16922;SDS011;8578;50.938;13.556;2023-05-28T11:21:02;3.37;;;1.87;;
16922;SDS011;8578;50.938;13.556;2023-05-28T11:23:29;6.33;;;2.13;;
16922;SDS011;8578;50.938;13.556;2023-05-28T11:25:57;3.13;;;1.87;;
16922;SDS011;8578;50.938;13.556;2023-05-28T11:28:44;4.53;;;1.80;;
16922;SDS011;8578;50.938;13.556;2023-05-28T11:31:14;3.97;;;1.93;;
16922;SDS011;8578;50.938;13.556;2023-05-28T11:33:47;4.90;;;2.10;;
16922;SDS011;8578;50.938;13.556;2023-05-28T11:36:15;3.63;;;1.93;;
16922;SDS011;8578;50.938;13.556;2023-05-28T11:38:43;4.80;;;2.17;;
16922;SDS011;8578;50.938;13.556;2023-05-28T11:41:11;5.90;;;1.80;;
16922;SDS011;8578;50.938;13.556;2023-05-28T11:43:38;4.43;;;2.10;;
16922;SDS011;8578;50.938;13.556;2023-05-28T11:46:07;6.00;;;1.97;;
16922;SDS011;8578;50.938;13.556;2023-05-28T11:48:36;3.07;;;1.70;;
16922;SDS011;8578;50.938;13.556;2023-05-28T11:51:03;4.10;;;1.83;;
16922;SDS011;8578;50.938;13.556;2023-05-28T11:53:40;4.63;;;1.90;;
16922;SDS011;8578;50.938;13.556;2023-05-28T11:56:08;6.60;;;1.90;;
16922;SDS011;8578;50.938;13.556;2023-05-28T11:58:37;4.70;;;1.97;;
16922;SDS011;8578;50.938;13.556;2023-05-28T12:01:13;6.23;;;2.07;;
16922;SDS011;8578;50.938;13.556;2023-05-28T12:03:41;6.53;;;1.90;;
16922;SDS011;8578;50.938;13.556;2023-05-28T12:06:10;5.00;;;2.37;;
16922;SDS011;8578;50.938;13.556;2023-05-28T12:08:48;2.90;;;1.87;;
16922;SDS011;8578;50.938;13.556;2023-05-28T12:11:15;3.87;;;1.90;;
16922;SDS011;8578;50.938;13.556;2023-05-28T12:13:43;4.30;;;2.07;;
16922;SDS011;8578;50.938;13.556;2023-05-28T12:16:11;4.37;;;1.60;;
16922;SDS011;8578;50.938;13.556;2023-05-28T12:18:41;8.80;;;1.90;;
16922;SDS011;8578;50.938;13.556;2023-05-28T12:21:09;3.67;;;1.90;;
16922;SDS011;8578;50.938;13.556;2023-05-28T12:23:37;7.70;;;1.90;;
16922;SDS011;8578;50.938;13.556;2023-05-28T12:26:08;4.53;;;1.90;;
16922;SDS011;8578;50.938;13.556;2023-05-28T12:28:36;6.57;;;1.97;;
16922;SDS011;8578;50.938;13.556;2023-05-28T12:31:07;6.43;;;2.00;;
16922;SDS011;8578;50.938;13.556;2023-05-28T12:33:35;4.33;;;1.77;;
16922;SDS011;8578;50.938;13.556;2023-05-28T12:36:04;4.57;;;1.73;;
16922;SDS011;8578;50.938;13.556;2023-05-28T12:38:32;4.87;;;2.00;;
16922;SDS011;8578;50.938;13.556;2023-05-28T12:41:00;5.47;;;2.00;;
16922;SDS011;8578;50.938;13.556;2023-05-28T12:43:28;3.93;;;1.80;;
16922;SDS011;8578;50.938;13.556;2023-05-28T12:45:55;4.67;;;1.90;;
16922;SDS011;8578;50.938;13.556;2023-05-28T12:48:22;5.43;;;1.77;;
16922;SDS011;8578;50.938;13.556;2023-05-28T12:50:50;4.30;;;1.90;;
16922;SDS011;8578;50.938;13.556;2023-05-28T12:53:19;3.37;;;1.70;;
16922;SDS011;8578;50.938;13.556;2023-05-28T12:55:47;2.67;;;1.67;;
16922;SDS011;8578;50.938;13.556;2023-05-28T12:58:15;3.80;;;2.03;;
16922;SDS011;8578;50.938;13.556;2023-05-28T13:00:42;3.60;;;1.80;;
16922;SDS011;8578;50.938;13.556;2023-05-28T13:03:09;3.53;;;1.83;;
16922;SDS011;8578;50.938;13.556;2023-05-28T13:05:37;2.10;;;1.40;;
16922;SDS011;8578;50.938;13.556;2023-05-28T13:08:05;4.30;;;1.63;;
16922;SDS011;8578;50.938;13.556;2023-05-28T13:10:34;3.00;;;1.57;;
16922;SDS011;8578;50.938;13.556;2023-05-28T13:13:01;4.30;;;1.60;;
16922;SDS011;8578;50.938;13.556;2023-05-28T13:15:29;3.13;;;1.50;;
16922;SDS011;8578;50.938;13.556;2023-05-28T13:17:56;4.73;;;1.73;;
16922;SDS011;8578;50.938;13.556;2023-05-28T13:20:24;2.70;;;1.80;;
16922;SDS011;8578;50.938;13.556;2023-05-28T13:22:52;4.47;;;1.83;;
16922;SDS011;8578;50.938;13.556;2023-05-28T13:25:20;2.53;;;1.67;;
16922;SDS011;8578;50.938;13.556;2023-05-28T13:27:49;2.23;;;1.60;;
16922;SDS011;8578;50.938;13.556;2023-05-28T13:30:17;4.10;;;1.60;;
16922;SDS011;8578;50.938;13.556;2023-05-28T13:32:44;3.60;;;1.60;;
16922;SDS011;8578;50.938;13.556;2023-05-28T13:35:12;3.93;;;2.13;;
16922;SDS011;8578;50.938;13.556;2023-05-28T13:37:41;4.87;;;1.77;;
16922;SDS011;8578;50.938;13.556;2023-05-28T13:40:08;2.80;;;1.67;;
16922;SDS011;8578;50.938;13.556;2023-05-28T13:42:39;3.07;;;1.83;;
16922;SDS011;8578;50.938;13.556;2023-05-28T13:45:09;4.37;;;1.70;;
16922;SDS011;8578;50.938;13.556;2023-05-28T13:47:37;2.30;;;1.60;;
16922;SDS011;8578;50.938;13.556;2023-05-28T13:50:04;3.30;;;2.00;;
16922;SDS011;8578;50.938;13.556;2023-05-28T13:52:32;4.27;;;1.90;;
16922;SDS011;8578;50.938;13.556;2023-05-28T13:55:00;4.10;;;1.97;;
16922;SDS011;8578;50.938;13.556;2023-05-28T13:57:27;3.30;;;1.90;;
16922;SDS011;8578;50.938;13.556;2023-05-28T13:59:55;3.10;;;1.90;;
16922;SDS011;8578;50.938;13.556;2023-05-28T14:02:24;4.30;;;2.10;;
16922;SDS011;8578;50.938;13.556;2023-05-28T14:04:52;3.83;;;1.93;;
16922;SDS011;8578;50.938;13.556;2023-05-28T14:07:19;3.13;;;1.73;;
16922;SDS011;8578;50.938;13.556;2023-05-28T14:09:47;4.03;;;2.07;;
16922;SDS011;8578;50.938;13.556;2023-05-28T14:12:15;4.97;;;2.17;;
16922;SDS011;8578;50.938;13.556;2023-05-28T14:14:48;6.57;;;2.20;;
16922;SDS011;8578;50.938;13.556;2023-05-28T14:17:15;5.37;;;2.13;;
16922;SDS011;8578;50.938;13.556;2023-05-28T14:19:44;6.17;;;2.20;;
16922;SDS011;8578;50.938;13.556;2023-05-28T14:22:14;3.03;;;1.90;;
16922;SDS011;8578;50.938;13.556;2023-05-28T14:24:41;3.37;;;1.80;;
16922;SDS011;8578;50.938;13.556;2023-05-28T14:27:08;3.57;;;2.03;;
16922;SDS011;8578;50.938;13.556;2023-05-28T14:29:36;3.07;;;1.83;;
16922;SDS011;8578;50.938;13.556;2023-05-28T14:32:04;2.33;;;1.87;;
16922;SDS011;8578;50.938;13.556;2023-05-28T14:34:32;3.50;;;1.70;;
16922;SDS011;8578;50.938;13.556;2023-05-28T14:37:01;3.40;;;2.00;;
16922;SDS011;8578;50.938;13.556;2023-05-28T14:39:29;2.47;;;1.80;;
16922;SDS011;8578;50.938;13.556;2023-05-28T14:41:57;8.63;;;2.00;;
16922;SDS011;8578;50.938;13.556;2023-05-28T14:44:24;3.63;;;2.00;;
16922;SDS011;8578;50.938;13.556;2023-05-28T14:46:52;6.60;;;1.90;;
16922;SDS011;8578;50.938;13.556;2023-05-28T14:49:19;5.37;;;1.90;;
16922;SDS011;8578;50.938;13.556;2023-05-28T14:51:47;4.90;;;1.80;;
16922;SDS011;8578;50.938;13.556;2023-05-28T14:54:16;2.77;;;1.87;;
16922;SDS011;8578;50.938;13.556;2023-05-28T14:56:43;3.47;;;2.00;;
16922;SDS011;8578;50.938;13.556;2023-05-28T14:59:11;2.90;;;1.83;;
16922;SDS011;8578;50.938;13.556;2023-05-28T15:01:38;3.33;;;2.07;;
16922;SDS011;8578;50.938;13.556;2023-05-28T15:04:06;5.20;;;1.90;;